This is the latest recevied weather packets stored in our database for station/object W1LH-12. If no packets are shown the sender has not sent any weather packets the latest 10 day(s).
| Time | Temp. | Humidity | Pressure | Rain* | Wind** | Luminosity | Snow |
|---|---|---|---|---|---|---|---|
| 1778067682 | 12.22° C | - | 1012.9 hPa | 0 mm | - | - | - |
| 1778066180 | 12.22° C | - | 1012.9 hPa | 0 mm | - | - | - |
| 1778065280 | 11.67° C | - | 1012.6 hPa | 0 mm | - | - | - |
| 1778064981 | 11.67° C | - | 1012.6 hPa | 0 mm | - | - | - |
| 1778055379 | 9.44° C | - | 1011.2 hPa | 0 mm | - | - | - |
| 1778054784 | 9.44° C | - | 1011.6 hPa | 0 mm | - | - | - |
| 1778052981 | 8.89° C | - | 1010.9 hPa | 0 mm | - | - | - |
| 1778049981 | 8.89° C | - | 1011.2 hPa | 0 mm | - | - | - |
| 1778049380 | 9.44° C | - | 1010.9 hPa | 0 mm | - | - | - |
| 1778048781 | 9.44° C | - | 1010.9 hPa | 0 mm | - | - | - |
| 1778047881 | 8.89° C | - | 1010.9 hPa | 0 mm | - | - | - |
| 1778046980 | 8.89° C | - | 1010.9 hPa | 0 mm | - | - | - |
| 1778046681 | 8.89° C | - | 1010.9 hPa | 0 mm | - | - | - |
| 1778045781 | 8.89° C | - | 1011.2 hPa | 0 mm | - | - | - |
| 1778045481 | 8.89° C | - | 1011.2 hPa | 0 mm | - | - | - |
| 1778045180 | 8.89° C | - | 1011.2 hPa | 0 mm | - | - | - |
| 1778044880 | 8.89° C | - | 1011.2 hPa | 0 mm | - | - | - |
| 1778044580 | 8.89° C | - | 1011.2 hPa | 0 mm | - | - | - |
| 1778044280 | 8.33° C | - | 1011.2 hPa | 0 mm | - | - | - |
| 1777956979 | 5.56° C | - | 1009.5 hPa | 0 mm | - | - | - |
| 1777956680 | 6.11° C | - | 1009.5 hPa | 0 mm | - | - | - |
| 1777956381 | 6.11° C | - | 1009.5 hPa | 0 mm | - | - | - |
| 1777870580 | 3.33° C | - | 1004.1 hPa | 0 mm | - | - | - |
| 1777869681 | 3.89° C | - | 1004.1 hPa | 0 mm | - | - | - |
| 1777868780 | 3.89° C | - | 1003.8 hPa | 0 mm | - | - | - |
* Rain latest hour (hover to see other rain measurements)
** Current wind speed in m/s (hover to see current wind gust speed)